Time;durP1;ratioP1;P1;durP2;ratioP2;P2;SDS_P1;SDS_P2;PMS_P1;PMS_P2;Temp;Humidity;BMP_temperature;BMP_pressure;BME280_temperature;BME280_humidity;BME280_pressure;Samples;Min_cycle;Max_cycle;Signal;HPM_P1;HPM_P2
2022/06/16 00:02:16;;;;;;;4.40;2.50;;;;;;;15.52;64.64;100271.56;4388668;32;33345;-85
2022/06/16 00:04:46;;;;;;;3.42;2.05;;;;;;;15.72;64.02;100263.47;4407792;32;33800;-83
2022/06/16 00:07:15;;;;;;;5.65;2.45;;;;;;;15.58;64.71;100254.34;4416719;32;32624;-86
2022/06/16 00:09:43;;;;;;;3.72;2.12;;;;;;;15.57;64.81;100261.28;4407841;32;33037;-85
2022/06/16 00:12:11;;;;;;;3.53;2.10;;;;;;;15.76;64.01;100262.81;4400648;32;33935;-84
2022/06/16 00:14:39;;;;;;;3.55;2.08;;;;;;;15.50;65.13;100260.19;4415250;32;32764;-84
2022/06/16 00:17:06;;;;;;;6.93;2.47;;;;;;;15.48;65.28;100261.88;4414196;32;33092;-85
2022/06/16 00:19:34;;;;;;;6.20;2.37;;;;;;;15.43;65.69;100255.62;4403133;32;32302;-85
2022/06/16 00:22:02;;;;;;;5.95;2.78;;;;;;;15.43;65.70;100254.72;4417599;32;33070;-86
2022/06/16 00:24:29;;;;;;;4.15;2.58;;;;;;;15.45;65.76;100248.75;4416666;32;34347;-84
2022/06/16 00:26:57;;;;;;;4.07;2.40;;;;;;;15.40;66.15;100255.53;4416483;32;32298;-85
2022/06/16 00:29:25;;;;;;;4.62;2.40;;;;;;;15.47;66.07;100252.28;4407427;32;33937;-85
2022/06/16 00:31:53;;;;;;;3.62;2.40;;;;;;;15.52;65.80;100255.91;4408960;32;34365;-84
2022/06/16 00:34:21;;;;;;;4.05;2.72;;;;;;;15.60;65.52;100242.22;4419750;32;34705;-85
2022/06/16 00:36:48;;;;;;;4.03;2.10;;;;;;;15.46;66.02;100250.50;4416368;32;34597;-85
2022/06/16 00:39:16;;;;;;;5.30;2.70;;;;;;;15.74;65.02;100251.38;4400947;32;32454;-84
2022/06/16 00:41:44;;;;;;;5.22;2.60;;;;;;;15.81;64.68;100248.13;4422072;32;31679;-85
2022/06/16 00:44:38;;;;;;;4.70;2.50;;;;;;;15.92;64.24;100251.09;4402421;32;33849;-84
2022/06/16 00:47:06;;;;;;;5.53;1.97;;;;;;;16.58;62.16;100239.03;4427503;32;34372;-85
2022/06/16 00:49:36;;;;;;;5.35;2.37;;;;;;;17.18;60.25;100238.03;4413808;32;33796;-84
2022/06/16 00:52:11;;;;;;;4.50;2.10;;;;;;;16.85;61.41;100231.06;4415191;32;33617;-85
2022/06/16 00:54:54;;;;;;;5.10;2.42;;;;;;;16.01;64.25;100233.09;4401332;32;33888;-84
2022/06/16 00:57:27;;;;;;;5.40;2.67;;;;;;;15.65;65.97;100235.44;4396561;32;33414;-84
2022/06/16 00:59:55;;;;;;;8.50;2.92;;;;;;;15.58;66.12;100239.56;4433317;32;32659;-84
2022/06/16 01:02:24;;;;;;;6.10;2.97;;;;;;;15.49;66.47;100232.31;4400101;32;32125;-84
2022/06/16 01:04:52;;;;;;;5.87;3.05;;;;;;;15.52;66.52;100227.19;4400658;32;33084;-84
2022/06/16 01:07:24;;;;;;;9.73;2.90;;;;;;;15.40;67.03;100218.97;4404097;32;32254;-84
2022/06/16 01:09:53;;;;;;;9.90;3.30;;;;;;;15.19;68.01;100218.28;4414636;32;33736;-84
2022/06/16 01:15:40;;;;;;;6.53;3.07;;;;;;;15.16;68.30;100216.44;4419325;32;34627;-86
2022/06/16 01:18:37;;;;;;;7.32;3.42;;;;;;;15.13;68.54;100214.63;4429848;32;33914;-84
2022/06/16 01:21:14;;;;;;;10.93;3.67;;;;;;;15.18;68.50;100208.66;4421182;32;34718;-85
2022/06/16 01:24:19;;;;;;;11.73;4.10;;;;;;;15.37;67.64;100208.44;4409470;32;33144;-85
2022/06/16 01:27:02;;;;;;;9.50;3.53;;;;;;;15.29;68.16;100207.31;4429665;32;33074;-86
2022/06/16 01:29:49;;;;;;;13.73;3.80;;;;;;;15.12;68.97;100205.03;4430855;32;34568;-84
2022/06/16 01:32:30;;;;;;;11.73;3.83;;;;;;;15.01;69.68;100201.19;4432013;32;33730;-85
2022/06/16 01:35:13;;;;;;;9.25;3.15;;;;;;;15.02;69.98;100210.78;4416777;32;33761;-86
2022/06/16 01:37:41;;;;;;;9.30;3.72;;;;;;;15.00;70.11;100202.00;4429151;32;33955;-84
2022/06/16 01:40:21;;;;;;;11.77;3.40;;;;;;;14.96;70.39;100199.25;4417023;32;32314;-83
2022/06/16 01:43:00;;;;;;;5.47;2.97;;;;;;;14.99;70.39;100200.25;4433399;32;34777;-85
2022/06/16 01:45:34;;;;;;;5.75;3.20;;;;;;;14.93;70.56;100194.81;4404911;32;33493;-84
2022/06/16 01:48:03;;;;;;;6.90;2.92;;;;;;;14.74;71.39;100193.31;4419599;32;34515;-84
2022/06/16 01:50:34;;;;;;;8.85;3.42;;;;;;;14.53;72.44;100198.66;4406654;32;33105;-84
2022/06/16 01:53:02;;;;;;;5.00;3.47;;;;;;;14.34;73.23;100197.97;4419763;32;33668;-84
2022/06/16 01:55:32;;;;;;;7.62;3.55;;;;;;;14.34;73.38;100200.59;4432559;32;32511;-86
2022/06/16 01:58:21;;;;;;;6.65;3.33;;;;;;;14.45;73.11;100202.72;4420457;32;32375;-84
2022/06/16 02:00:50;;;;;;;5.05;3.50;;;;;;;14.58;72.74;100193.63;4417241;32;33884;-85
2022/06/16 02:03:25;;;;;;;6.97;3.28;;;;;;;14.54;72.95;100195.19;4406093;32;32674;-85
2022/06/16 02:05:55;;;;;;;6.32;3.60;;;;;;;14.61;72.89;100196.34;4416692;32;32139;-84
2022/06/16 02:08:35;;;;;;;5.07;3.40;;;;;;;14.77;72.04;100192.53;4425509;32;34070;-85
2022/06/16 02:11:09;;;;;;;6.82;3.67;;;;;;;14.86;71.48;100198.06;4418324;32;33712;-85
2022/06/16 02:13:38;;;;;;;;;;;;;;;15.33;69.62;100185.69;4419039;32;33413;-86
2022/06/16 02:16:19;;;;;;;7.47;3.72;;;;;;;15.20;70.32;100193.94;4406807;32;32626;-85
2022/06/16 02:18:51;;;;;;;7.53;3.80;;;;;;;15.06;70.87;100197.00;4410464;32;32122;-84
2022/06/16 02:21:38;;;;;;;5.45;3.12;;;;;;;15.05;71.17;100195.22;4414790;32;32461;-83
2022/06/16 02:24:10;;;;;;;6.50;3.30;;;;;;;14.77;72.38;100192.53;4417854;32;33868;-85
2022/06/16 02:26:37;;;;;;;5.62;3.62;;;;;;;14.78;72.55;100192.59;4421283;32;33120;-85
2022/06/16 02:29:38;;;;;;;8.57;3.92;;;;;;;14.49;73.73;100192.44;4416101;32;33685;-83
2022/06/16 02:32:32;;;;;;;6.10;3.50;;;;;;;14.70;72.91;100192.34;4409487;32;33091;-84
2022/06/16 02:35:22;;;;;;;7.12;3.95;;;;;;;14.62;73.32;100193.78;4428172;32;32382;-85
2022/06/16 02:38:27;;;;;;;6.35;3.72;;;;;;;14.53;73.65;100193.44;4429419;32;33686;-85
2022/06/16 02:41:10;;;;;;;7.25;3.80;;;;;;;14.43;74.38;100196.53;4432241;32;33012;-84
2022/06/16 02:43:54;;;;;;;9.00;4.30;;;;;;;14.43;74.45;100196.53;4428238;32;33926;-85
2022/06/16 02:46:40;;;;;;;7.43;4.03;;;;;;;14.46;74.23;100192.31;4431579;32;33752;-84
2022/06/16 02:49:39;;;;;;;6.87;3.72;;;;;;;14.52;74.14;100187.31;4417207;32;33091;-85
2022/06/16 02:52:28;;;;;;;7.07;4.10;;;;;;;14.60;73.67;100186.72;4428590;32;33459;-83
2022/06/16 02:55:10;;;;;;;7.35;4.22;;;;;;;14.67;73.43;100197.44;4415113;32;32886;-85
2022/06/16 02:57:51;;;;;;;7.37;4.40;;;;;;;14.60;73.87;100195.44;4409402;32;34601;-85
2022/06/16 03:00:25;;;;;;;6.35;4.28;;;;;;;14.49;74.41;100199.38;4408061;32;34058;-85
2022/06/16 03:02:53;;;;;;;7.35;4.35;;;;;;;14.37;75.10;100202.44;4436490;32;34106;-85
2022/06/16 03:05:21;;;;;;;7.47;4.90;;;;;;;14.38;75.08;100200.72;4418505;32;33812;-84
2022/06/16 03:07:49;;;;;;;9.25;3.90;;;;;;;14.46;74.96;100202.75;4415056;32;34781;-85
2022/06/16 03:10:50;;;;;;;6.10;4.20;;;;;;;14.56;74.51;100203.94;4415985;32;34391;-85
2022/06/16 03:13:05;;;;;;;6.18;3.90;;;;;;;14.63;74.24;100195.56;4430807;32;34033;-84
2022/06/16 03:15:33;;;;;;;11.15;4.43;;;;;;;14.67;74.20;100192.22;4405681;32;33209;-85
2022/06/16 03:18:00;;;;;;;6.85;4.50;;;;;;;14.61;74.48;100196.34;4428201;32;33907;-86
2022/06/16 03:20:28;;;;;;;5.78;4.03;;;;;;;14.67;74.35;100194.81;4414157;32;34387;-84
2022/06/16 03:22:55;;;;;;;8.32;4.40;;;;;;;14.70;74.35;100197.53;4411523;32;34533;-86
2022/06/16 03:25:23;;;;;;;8.23;4.30;;;;;;;14.70;74.26;100207.97;4415750;32;33119;-85
2022/06/16 03:27:55;;;;;;;7.28;3.95;;;;;;;14.74;74.22;100190.72;4408924;32;34113;-86
2022/06/16 03:30:24;;;;;;;7.65;4.15;;;;;;;14.75;74.24;100197.69;4406678;32;32644;-85
2022/06/16 03:32:52;;;;;;;8.15;4.20;;;;;;;14.87;74.04;100199.81;4414809;32;34672;-84
2022/06/16 03:35:20;;;;;;;9.88;4.28;;;;;;;15.12;73.05;100196.31;4415125;32;32280;-84
2022/06/16 03:37:51;;;;;;;6.18;4.30;;;;;;;15.00;73.43;100207.22;4411110;32;32589;-85
2022/06/16 03:40:20;;;;;;;10.00;4.30;;;;;;;15.19;72.95;100202.63;4396820;32;31863;-84
2022/06/16 03:42:50;;;;;;;6.10;3.72;;;;;;;15.02;73.62;100204.69;4419566;32;34360;-84
2022/06/16 03:45:19;;;;;;;6.50;4.00;;;;;;;14.93;74.07;100207.84;4419595;32;34640;-85
2022/06/16 03:47:48;;;;;;;10.35;4.32;;;;;;;15.03;73.84;100207.34;4409618;32;33469;-85
2022/06/16 03:50:18;;;;;;;7.78;3.95;;;;;;;15.18;73.19;100200.84;4407688;32;32141;-85
2022/06/16 03:52:46;;;;;;;7.55;4.15;;;;;;;15.61;71.54;100200.50;4406017;32;33901;-85
2022/06/16 03:55:14;;;;;;;6.03;4.05;;;;;;;16.84;67.02;100200.50;4420884;32;33927;-85
2022/06/16 03:57:41;;;;;;;8.73;3.75;;;;;;;17.26;65.46;100202.44;4407591;32;33808;-86
2022/06/16 04:00:12;;;;;;;8.27;4.00;;;;;;;17.46;64.70;100208.12;4389290;32;32616;-85
2022/06/16 04:02:44;;;;;;;5.97;4.00;;;;;;;17.49;64.64;100203.84;4407343;32;33834;-83
2022/06/16 04:05:13;;;;;;;7.62;4.05;;;;;;;17.67;64.05;100207.75;4392242;32;32226;-85
2022/06/16 04:07:41;;;;;;;7.25;4.05;;;;;;;17.79;63.56;100207.13;4409184;32;34735;-84
2022/06/16 04:10:11;;;;;;;6.50;4.40;;;;;;;17.45;64.40;100212.50;4398305;32;33035;-83
2022/06/16 04:12:39;;;;;;;6.28;3.75;;;;;;;17.64;63.85;100219.03;4428325;32;34729;-84
2022/06/16 04:15:10;;;;;;;8.02;4.12;;;;;;;17.89;62.99;100217.00;4397939;32;34793;-84
2022/06/16 04:17:38;;;;;;;6.97;4.00;;;;;;;18.09;62.53;100227.91;4395049;32;32813;-84
2022/06/16 04:20:14;;;;;;;6.05;3.70;;;;;;;18.29;62.17;100215.19;4420504;32;31798;-84
2022/06/16 04:22:42;;;;;;;5.32;3.62;;;;;;;18.10;63.20;100219.22;4405419;32;34687;-83
2022/06/16 04:25:14;;;;;;;7.05;4.35;;;;;;;18.06;63.56;100226.13;4405349;32;32443;-84
2022/06/16 04:27:42;;;;;;;7.85;4.50;;;;;;;18.10;63.62;100221.84;4403471;32;33316;-84
2022/06/16 04:30:13;;;;;;;7.05;3.87;;;;;;;18.53;62.09;100220.06;4406381;32;32182;-83
2022/06/16 04:32:41;;;;;;;7.50;3.70;;;;;;;18.94;60.73;100217.34;4409030;32;33826;-84
2022/06/16 04:35:09;;;;;;;8.55;3.80;;;;;;;18.89;61.06;100218.09;4401983;32;33013;-84
2022/06/16 04:37:40;;;;;;;7.87;3.83;;;;;;;18.92;61.18;100216.44;4395819;32;33208;-84
2022/06/16 04:40:09;;;;;;;7.03;4.00;;;;;;;18.65;62.37;100222.91;4391543;32;31990;-84
2022/06/16 04:42:39;;;;;;;12.27;4.00;;;;;;;19.13;61.16;100225.53;4401697;32;33832;-84
2022/06/16 04:45:10;;;;;;;7.57;4.30;;;;;;;19.27;60.95;100221.38;4396760;32;32708;-84
2022/06/16 04:47:39;;;;;;;7.35;4.07;;;;;;;19.29;60.37;100219.66;4421119;32;32636;-84
2022/06/16 04:50:08;;;;;;;8.27;4.00;;;;;;;19.75;58.98;100219.53;4415338;32;33603;-83
2022/06/16 04:52:37;;;;;;;6.37;4.00;;;;;;;19.68;58.56;100218.50;4406887;32;33211;-83
2022/06/16 04:55:07;;;;;;;8.20;4.07;;;;;;;19.93;57.60;100221.50;4416335;32;33654;-83
2022/06/16 04:57:35;;;;;;;6.65;4.18;;;;;;;20.00;57.21;100220.75;4428801;32;34088;-84
2022/06/16 05:00:05;;;;;;;9.90;5.05;;;;;;;19.86;57.16;100219.66;4408831;32;32481;-84
2022/06/16 05:02:52;;;;;;;9.80;5.18;;;;;;;20.10;56.57;100219.97;4418183;32;33550;-84
2022/06/16 05:05:20;;;;;;;8.70;5.68;;;;;;;19.99;56.83;100219.87;4418323;32;34673;-84
2022/06/16 05:07:49;;;;;;;9.00;5.45;;;;;;;20.43;56.00;100223.87;4408989;32;34067;-83
2022/06/16 05:10:18;;;;;;;7.80;5.32;;;;;;;20.62;55.42;100219.75;4413123;32;33125;-84
2022/06/16 05:12:46;;;;;;;9.52;5.53;;;;;;;20.46;55.95;100220.44;4396945;32;32927;-84
2022/06/16 05:15:13;;;;;;;9.98;5.15;;;;;;;20.20;56.75;100215.72;4407894;32;33999;-84
2022/06/16 05:17:43;;;;;;;6.55;4.97;;;;;;;20.55;55.37;100218.78;4398342;32;35217;-84
2022/06/16 05:20:12;;;;;;;8.27;5.15;;;;;;;20.66;55.14;100215.41;4389390;32;32180;-85
2022/06/16 05:22:40;;;;;;;9.35;5.90;;;;;;;20.39;55.48;100214.19;4405639;32;33259;-84
2022/06/16 05:25:10;;;;;;;9.43;5.12;;;;;;;19.93;56.76;100214.50;4406807;32;33433;-84
2022/06/16 05:27:38;;;;;;;10.45;5.15;;;;;;;20.84;54.95;100218.19;4408562;32;32955;-83
2022/06/16 05:30:07;;;;;;;9.70;4.65;;;;;;;20.95;54.72;100216.56;4403418;32;33168;-85
2022/06/16 05:32:35;;;;;;;6.93;4.70;;;;;;;20.98;54.42;100216.59;4414422;32;33592;-85
2022/06/16 05:35:04;;;;;;;10.45;4.90;;;;;;;21.47;53.14;100223.16;4407738;32;34039;-85
2022/06/16 05:37:32;;;;;;;9.40;4.78;;;;;;;21.40;53.08;100228.38;4395243;32;32650;-85
2022/06/16 05:40:07;;;;;;;7.57;4.50;;;;;;;21.83;52.65;100224.25;4404790;32;32270;-84
2022/06/16 05:42:39;;;;;;;7.28;4.53;;;;;;;21.54;52.65;100214.44;4403967;32;33336;-84
2022/06/16 05:45:12;;;;;;;5.78;4.00;;;;;;;21.87;51.14;100212.88;4401787;32;33736;-84
2022/06/16 05:47:42;;;;;;;9.35;3.78;;;;;;;21.98;50.86;100213.78;4395566;32;32986;-84
2022/06/16 05:50:15;;;;;;;6.95;3.67;;;;;;;22.27;49.79;100206.06;4416463;32;33643;-85
2022/06/16 05:52:44;;;;;;;7.10;3.55;;;;;;;21.98;50.62;100216.41;4424921;32;33639;-84
2022/06/16 05:55:15;;;;;;;8.63;3.40;;;;;;;22.16;49.64;100202.44;4393600;32;33371;-85
2022/06/16 05:57:43;;;;;;;7.10;3.50;;;;;;;22.68;49.09;100207.03;4421366;32;33426;-85
2022/06/16 06:00:12;;;;;;;7.15;3.87;;;;;;;22.73;48.80;100205.25;4389567;32;31757;-85
2022/06/16 06:02:40;;;;;;;6.45;4.03;;;;;;;22.20;49.90;100206.87;4416718;32;34782;-85
2022/06/16 06:05:11;;;;;;;7.60;3.87;;;;;;;21.46;50.75;100208.19;4398150;32;32343;-85
2022/06/16 06:18:48;;;;;;;9.13;3.22;;;;;;;22.56;49.59;100198.22;4406050;32;32496;-86
2022/06/16 06:21:57;;;;;;;8.52;4.03;;;;;;;22.73;49.73;100202.63;4416363;32;33017;-85
2022/06/16 06:24:06;;;;;;;5.70;3.30;;;;;;;22.04;50.44;100205.03;4420332;32;34698;-86
2022/06/16 06:26:34;;;;;;;6.22;3.50;;;;;;;22.23;50.32;100198.06;4404108;32;33198;-85
2022/06/16 06:29:03;;;;;;;10.02;3.37;;;;;;;23.26;47.47;100196.53;4437960;32;34883;-87
2022/06/16 06:31:31;;;;;;;7.65;3.22;;;;;;;23.12;47.26;100199.19;4410800;32;34304;-85
2022/06/16 06:33:59;;;;;;;6.22;3.10;;;;;;;23.91;46.49;100201.69;4447509;32;33915;-86
2022/06/16 06:36:26;;;;;;;9.80;3.00;;;;;;;23.91;46.04;100201.69;4423506;32;33978;-85
2022/06/16 06:38:54;;;;;;;6.50;3.35;;;;;;;24.11;45.75;100205.16;4395462;32;32352;-85
2022/06/16 06:41:22;;;;;;;7.62;2.97;;;;;;;24.19;45.30;100201.62;4417769;32;34261;-85
2022/06/16 06:43:49;;;;;;;8.80;3.33;;;;;;;24.34;45.77;100206.84;4416038;32;32782;-88
2022/06/16 06:46:17;;;;;;;8.18;3.62;;;;;;;23.11;48.26;100209.75;4409993;32;32150;-88
2022/06/16 06:48:45;;;;;;;7.87;2.72;;;;;;;22.49;49.66;100211.38;4409715;32;34046;-87
2022/06/16 06:51:13;;;;;;;6.45;2.78;;;;;;;23.51;47.79;100207.94;4414376;32;32111;-85
2022/06/16 06:53:40;;;;;;;7.35;3.20;;;;;;;24.29;46.55;100198.03;4425437;32;33836;-88
2022/06/16 06:56:09;;;;;;;5.95;2.90;;;;;;;23.81;47.16;100203.50;4424385;32;33792;-87
2022/06/16 06:58:38;;;;;;;4.45;2.45;;;;;;;24.29;46.82;100200.69;4410892;32;32642;-87
2022/06/16 07:01:06;;;;;;;8.55;2.92;;;;;;;24.33;46.74;100205.94;4412970;32;32903;-88
2022/06/16 07:03:34;;;;;;;9.50;2.85;;;;;;;23.15;47.03;100204.44;4419434;32;32444;-86
2022/06/16 07:06:03;;;;;;;5.43;2.83;;;;;;;24.30;46.20;100205.97;4424641;32;33901;-88
2022/06/16 07:08:31;;;;;;;6.87;2.90;;;;;;;24.48;45.71;100199.69;4410749;32;34214;-88
2022/06/16 07:10:59;;;;;;;8.27;3.12;;;;;;;24.58;45.65;100194.38;4419311;32;33170;-86
2022/06/16 07:13:26;;;;;;;6.50;3.12;;;;;;;24.93;45.46;100200.28;4412327;32;32729;-87
2022/06/16 07:15:54;;;;;;;6.15;2.58;;;;;;;24.80;44.97;100203.94;4441624;32;34115;-86
2022/06/16 07:18:22;;;;;;;5.28;2.70;;;;;;;25.24;44.78;100205.38;4411705;32;35814;-87
2022/06/16 07:20:51;;;;;;;6.50;2.37;;;;;;;25.36;42.98;100195.53;4384897;32;34553;-86
2022/06/16 07:23:19;;;;;;;8.55;2.87;;;;;;;25.46;43.68;100198.09;4409262;32;32663;-86
2022/06/16 07:25:48;;;;;;;3.92;2.30;;;;;;;25.88;42.16;100192.34;4399751;32;32507;-86
2022/06/16 07:28:16;;;;;;;8.45;3.15;;;;;;;25.39;43.20;100192.87;4430782;32;34130;-85
2022/06/16 07:30:44;;;;;;;6.12;2.92;;;;;;;25.67;42.81;100194.34;4423625;32;33697;-87
2022/06/16 07:33:12;;;;;;;6.30;2.80;;;;;;;26.03;41.80;100189.53;4421444;32;33951;-85
2022/06/16 07:35:43;;;;;;;5.50;2.75;;;;;;;26.14;40.56;100188.53;4423276;32;32514;-86
2022/06/16 07:38:11;;;;;;;5.53;2.70;;;;;;;26.02;40.96;100179.81;4412194;32;34150;-86
2022/06/16 07:40:40;;;;;;;7.12;2.92;;;;;;;25.67;41.94;100190.81;4409212;32;33124;-88
2022/06/16 07:43:08;;;;;;;10.05;3.08;;;;;;;26.18;40.98;100184.94;4397541;32;33856;-88
2022/06/16 07:45:37;;;;;;;6.62;3.10;;;;;;;25.70;42.81;100191.66;4411005;32;35924;-87
2022/06/16 07:48:06;;;;;;;4.35;2.53;;;;;;;26.08;39.77;100182.41;4412046;32;32237;-87
2022/06/16 07:50:37;;;;;;;8.05;3.12;;;;;;;26.84;37.96;100179.56;4416931;32;33906;-87
2022/06/16 07:53:05;;;;;;;9.75;2.70;;;;;;;26.22;40.18;100184.00;4405478;32;30991;-87
2022/06/16 07:55:34;;;;;;;8.60;3.03;;;;;;;26.57;39.20;100178.19;4418876;32;34024;-87
2022/06/16 07:58:02;;;;;;;5.45;2.60;;;;;;;27.46;36.97;100184.72;4403320;32;32438;-86
2022/06/16 08:00:33;;;;;;;3.95;2.40;;;;;;;27.02;38.22;100175.75;4409826;32;34080;-87
2022/06/16 08:03:02;;;;;;;7.97;2.58;;;;;;;26.66;38.40;100177.22;4414013;32;33213;-87
2022/06/16 08:05:30;;;;;;;5.05;2.17;;;;;;;26.79;38.49;100164.59;4426735;32;33275;-86
2022/06/16 08:07:57;;;;;;;4.70;2.30;;;;;;;26.72;34.63;100170.94;4409307;32;33385;-86
2022/06/16 08:10:28;;;;;;;5.65;2.30;;;;;;;27.06;36.61;100168.56;4416696;32;33657;-87
2022/06/16 08:12:56;;;;;;;5.10;2.20;;;;;;;26.75;34.51;100163.75;4414815;32;33995;-88
2022/06/16 08:15:25;;;;;;;6.57;2.20;;;;;;;26.22;36.47;100168.06;4406547;32;32811;-87
2022/06/16 08:17:55;;;;;;;4.78;1.92;;;;;;;26.23;36.28;100164.50;4416420;32;35220;-89
2022/06/16 08:20:23;;;;;;;7.37;2.10;;;;;;;26.34;36.38;100167.88;4415889;32;32742;-90
2022/06/16 08:22:58;;;;;;;5.65;2.72;;;;;;;26.23;34.30;100169.81;4413091;32;33503;-87
2022/06/16 08:25:26;;;;;;;4.90;2.22;;;;;;;25.18;36.78;100180.66;4405790;32;32512;-87
2022/06/16 08:27:55;;;;;;;8.35;2.37;;;;;;;24.98;36.53;100178.19;4414917;32;33337;-86
2022/06/16 08:30:24;;;;;;;4.30;2.35;;;;;;;25.34;37.29;100177.00;4421231;32;32525;-86
2022/06/16 08:32:52;;;;;;;4.40;2.00;;;;;;;25.22;37.12;100183.28;4407710;32;33617;-86
2022/06/16 08:35:20;;;;;;;6.68;2.50;;;;;;;25.11;37.25;100180.72;4395483;32;32459;-85
2022/06/16 08:37:48;;;;;;;5.12;2.50;;;;;;;25.70;36.75;100190.78;4421006;32;33532;-85
2022/06/16 08:40:18;;;;;;;5.85;1.95;;;;;;;25.99;34.48;100179.84;4412547;32;32941;-87
2022/06/16 08:42:52;;;;;;;4.12;1.98;;;;;;;26.91;34.75;100176.81;4406293;32;32575;-86
2022/06/16 08:45:42;;;;;;;6.32;1.90;;;;;;;26.54;33.00;100177.34;4401053;32;33187;-87
2022/06/16 08:48:21;;;;;;;5.10;2.12;;;;;;;26.44;33.09;100181.91;4406457;32;32896;-86
2022/06/16 08:50:55;;;;;;;7.68;2.20;;;;;;;26.61;31.94;100179.91;4413398;32;34282;-87
2022/06/16 08:53:32;;;;;;;4.85;1.90;;;;;;;27.09;31.68;100179.16;4419132;32;32324;-87
2022/06/16 08:56:10;;;;;;;4.93;2.05;;;;;;;27.03;32.88;100173.97;4434400;32;34725;-87
2022/06/16 08:59:09;;;;;;;4.03;2.12;;;;;;;27.38;31.61;100178.69;4401307;32;32815;-86
2022/06/16 09:01:44;;;;;;;3.83;1.87;;;;;;;27.35;31.74;100185.84;4414998;32;33693;-87
2022/06/16 09:04:33;;;;;;;4.90;1.98;;;;;;;27.52;31.02;100183.75;4411835;32;33171;-87
2022/06/16 09:07:12;;;;;;;4.93;2.65;;;;;;;27.96;30.52;100178.50;4426873;32;33875;-87
2022/06/16 09:12:41;;;;;;;7.93;2.40;;;;;;;28.18;32.15;100176.22;4429233;32;33563;-87
2022/06/16 09:15:13;;;;;;;7.12;2.92;;;;;;;28.71;32.67;100174.19;4423248;32;33913;-88
2022/06/16 09:18:25;;;;;;;6.78;2.53;;;;;;;28.43;31.27;100172.13;4415004;32;33586;-87
2022/06/16 09:21:01;;;;;;;4.43;2.37;;;;;;;29.63;29.96;100164.72;4392120;32;32716;-88
2022/06/16 09:23:40;;;;;;;4.95;2.60;;;;;;;29.43;29.41;100158.16;4415193;32;33463;-87
2022/06/16 09:26:18;;;;;;;6.00;2.70;;;;;;;28.55;32.48;100163.00;4408656;32;32418;-87
2022/06/16 09:28:59;;;;;;;6.87;2.70;;;;;;;28.08;30.03;100166.69;4418894;32;33788;-88
2022/06/16 09:31:56;;;;;;;6.22;2.62;;;;;;;28.10;30.45;100159.56;4416185;32;33899;-89
2022/06/16 09:34:33;;;;;;;8.13;2.60;;;;;;;28.02;31.55;100151.72;4403514;32;33060;-88
2022/06/16 09:37:08;;;;;;;5.37;2.60;;;;;;;28.19;32.78;100157.56;4412282;32;32271;-88
2022/06/16 09:39:37;;;;;;;;;;;;;;;28.34;31.72;100158.16;4398711;32;33276;-86
2022/06/16 09:42:34;;;;;;;5.37;2.50;;;;;;;28.38;31.58;100158.03;4420734;32;34109;-86
2022/06/16 09:45:02;;;;;;;7.28;2.45;;;;;;;29.10;29.69;100149.22;4411260;32;32800;-88
2022/06/16 09:47:59;;;;;;;3.42;1.98;;;;;;;29.88;29.95;100133.78;4437236;32;33898;-87
2022/06/16 09:50:48;;;;;;;5.05;2.03;;;;;;;29.12;29.08;100137.62;4425743;32;34149;-86
2022/06/16 09:53:33;;;;;;;4.65;2.22;;;;;;;29.93;28.11;100139.84;4423117;32;34171;-88
2022/06/16 09:56:10;;;;;;;3.70;1.90;;;;;;;29.88;26.83;100127.56;4438604;32;34428;-87
2022/06/16 09:58:50;;;;;;;3.20;1.83;;;;;;;29.41;27.91;100133.31;4437964;32;33917;-88
2022/06/16 10:01:21;;;;;;;4.30;1.90;;;;;;;28.61;27.46;100140.69;4410523;32;32409;-87
2022/06/16 10:03:49;;;;;;;4.35;1.83;;;;;;;28.70;28.93;100145.75;4418245;32;37063;-88
2022/06/16 10:06:25;;;;;;;5.15;1.75;;;;;;;29.02;26.00;100133.41;4434745;32;34304;-88
2022/06/16 10:09:15;;;;;;;2.53;1.50;;;;;;;29.79;26.13;100128.72;4417299;32;33863;-88
2022/06/16 10:12:00;;;;;;;4.15;1.40;;;;;;;30.26;25.86;100131.72;4415706;32;34032;-88
2022/06/16 10:14:38;;;;;;;6.22;1.58;;;;;;;29.71;26.21;100136.00;4421635;32;34010;-88
2022/06/16 10:17:09;;;;;;;4.35;1.33;;;;;;;29.95;26.56;100124.66;4432423;32;33398;-87
2022/06/16 10:19:43;;;;;;;3.22;1.60;;;;;;;31.14;25.79;100121.75;4401344;32;33343;-88
2022/06/16 10:22:16;;;;;;;5.37;1.40;;;;;;;31.83;22.18;100122.88;4405607;32;33430;-88
2022/06/16 10:24:56;;;;;;;6.40;1.80;;;;;;;32.11;21.68;100117.38;4419831;32;34531;-88
2022/06/16 10:27:30;;;;;;;5.03;1.52;;;;;;;30.17;25.52;100121.31;4420288;32;32496;-88
2022/06/16 10:29:59;;;;;;;3.30;1.50;;;;;;;30.85;25.52;100116.50;4421444;32;33773;-87
2022/06/16 10:32:34;;;;;;;3.85;1.90;;;;;;;30.00;24.90;100121.84;4425638;32;32719;-88
2022/06/16 10:35:04;;;;;;;4.68;1.95;;;;;;;30.53;25.70;100119.31;4431734;32;34057;-89
2022/06/16 10:37:31;;;;;;;4.40;1.37;;;;;;;29.57;26.41;100126.62;4408169;32;33440;-88
2022/06/16 10:40:16;;;;;;;4.90;1.75;;;;;;;29.54;25.43;100133.84;4429693;32;33791;-89
2022/06/16 10:42:52;;;;;;;5.85;1.75;;;;;;;29.62;24.52;100130.97;4413444;32;33860;-88
2022/06/16 10:45:29;;;;;;;5.40;1.60;;;;;;;30.42;26.25;100133.94;4430737;32;34507;-88
2022/06/16 10:48:02;;;;;;;4.00;1.50;;;;;;;30.89;26.44;100131.53;4419827;32;34188;-88
2022/06/16 10:50:30;;;;;;;;;;;;;;;31.44;23.12;100126.06;4417449;32;32711;-87
2022/06/16 10:53:23;;;;;;;4.05;1.80;;;;;;;31.29;23.67;100132.84;4431810;32;34532;-87
2022/06/16 10:55:56;;;;;;;3.87;1.62;;;;;;;31.30;22.75;100123.91;4418982;32;34098;-86
2022/06/16 10:58:28;;;;;;;2.50;1.60;;;;;;;30.88;23.21;100121.75;4422782;32;34448;-88
2022/06/16 11:01:16;;;;;;;3.37;1.50;;;;;;;31.81;22.12;100114.87;4419865;32;34494;-87
2022/06/16 11:03:51;;;;;;;2.62;1.30;;;;;;;32.38;21.85;100117.19;4420563;32;33828;-89
2022/06/16 11:06:22;;;;;;;3.83;1.60;;;;;;;32.87;21.68;100112.50;4437246;32;34715;-86
2022/06/16 11:08:58;;;;;;;2.58;1.40;;;;;;;33.26;21.08;100101.00;4423464;32;33560;-90
2022/06/16 11:11:42;;;;;;;5.37;1.83;;;;;;;33.47;21.89;100089.28;4421640;32;33570;-88
2022/06/16 11:14:14;;;;;;;3.35;1.45;;;;;;;33.51;21.51;100084.66;4422747;32;33780;-87
2022/06/16 11:16:51;;;;;;;8.48;1.67;;;;;;;34.00;21.77;100089.59;4418772;32;34965;-89
2022/06/16 11:19:33;;;;;;;4.93;1.42;;;;;;;34.12;21.86;100082.75;4422130;32;33327;-88
2022/06/16 11:22:16;;;;;;;3.83;1.62;;;;;;;33.78;21.61;100074.47;4420706;32;34572;-88
2022/06/16 11:24:56;;;;;;;5.12;1.37;;;;;;;34.00;21.07;100073.47;4422034;32;32514;-88
2022/06/16 11:27:24;;;;;;;2.37;1.40;;;;;;;33.93;21.21;100070.19;4425843;32;33493;-87
2022/06/16 11:29:51;;;;;;;3.95;1.70;;;;;;;32.36;21.75;100062.78;4430382;32;34321;-87
2022/06/16 11:32:21;;;;;;;3.92;1.55;;;;;;;32.08;23.76;100064.75;4419541;32;34267;-88
2022/06/16 11:34:49;;;;;;;5.57;1.60;;;;;;;31.01;23.80;100058.91;4437884;32;33612;-90
2022/06/16 11:37:55;;;;;;;3.08;1.67;;;;;;;30.78;23.61;100059.69;4425546;32;34722;-88
2022/06/16 11:40:30;;;;;;;3.08;1.70;;;;;;;30.23;23.79;100065.03;4425651;32;33382;-88
2022/06/16 11:43:16;;;;;;;4.53;1.70;;;;;;;31.31;25.50;100056.03;4414979;32;31899;-87
2022/06/16 11:45:54;;;;;;;5.72;1.80;;;;;;;29.99;23.37;100058.66;4429418;32;34739;-89
2022/06/16 11:48:31;;;;;;;4.97;1.70;;;;;;;30.96;24.80;100050.16;4428647;32;33927;-87
2022/06/16 11:51:07;;;;;;;3.08;1.50;;;;;;;31.50;23.19;100045.56;4407493;32;32641;-88
2022/06/16 11:54:12;;;;;;;5.47;1.90;;;;;;;30.71;24.11;100044.75;4419650;32;32818;-88
2022/06/16 11:57:01;;;;;;;5.75;2.08;;;;;;;30.37;24.41;100036.09;4424664;32;228338;-88
2022/06/16 11:59:34;;;;;;;3.42;1.85;;;;;;;30.38;23.55;100031.62;4411939;32;32145;-89
2022/06/16 12:02:05;;;;;;;4.95;1.60;;;;;;;30.37;24.44;100030.75;4431303;32;31872;-88
2022/06/16 12:04:39;;;;;;;4.03;1.75;;;;;;;30.40;23.52;100028.91;4427220;32;34042;-88
2022/06/16 12:07:10;;;;;;;6.65;1.70;;;;;;;30.64;24.27;100032.56;4420213;32;33147;-89
2022/06/16 12:09:41;;;;;;;3.65;1.75;;;;;;;31.40;24.37;100023.59;4415709;32;34128;-88
2022/06/16 12:12:25;;;;;;;7.05;1.87;;;;;;;30.66;23.21;100036.91;4433437;32;33939;-88
2022/06/16 12:14:59;;;;;;;3.37;1.80;;;;;;;31.28;23.32;100029.41;4418298;32;34200;-89